createdAt,value
2022-08-22T00:03:09.681Z,7.20
2022-08-22T00:03:24.288Z,6.90
2022-08-22T00:04:24.246Z,5.70
2022-08-22T00:05:24.268Z,4.40
2022-08-22T00:06:24.221Z,4.80
2022-08-22T00:07:24.224Z,4.00
2022-08-22T00:08:24.198Z,7.80
2022-08-22T00:09:24.177Z,3.60
2022-08-22T00:10:25.505Z,4.30
2022-08-22T00:11:24.163Z,5.20
2022-08-22T00:12:24.142Z,5.50
2022-08-22T00:13:24.138Z,3.80
2022-08-22T00:14:24.136Z,4.80
2022-08-22T00:15:42.133Z,3.30
2022-08-22T00:16:24.111Z,8.30
2022-08-22T00:17:24.093Z,3.90
2022-08-22T00:18:24.115Z,4.70
2022-08-22T00:19:24.050Z,5.00
2022-08-22T00:20:28.153Z,4.20
2022-08-22T00:21:24.037Z,3.80
2022-08-22T00:22:24.013Z,4.60
2022-08-22T00:23:23.999Z,5.30
2022-08-22T00:24:24.011Z,4.90
2022-08-22T00:25:25.623Z,6.90
2022-08-22T00:26:23.972Z,3.80
2022-08-22T00:27:23.964Z,3.70
2022-08-22T00:28:23.943Z,3.60
2022-08-22T00:29:23.920Z,5.70
2022-08-22T00:30:23.937Z,3.30
2022-08-22T00:31:23.897Z,4.20
2022-08-22T00:32:23.902Z,5.30
2022-08-22T00:33:23.898Z,4.50
2022-08-22T00:34:23.862Z,4.90
2022-08-22T00:35:23.850Z,6.40
2022-08-22T00:36:23.845Z,7.00
2022-08-22T00:37:24.253Z,4.30
2022-08-22T00:38:23.824Z,3.70
2022-08-22T00:39:23.810Z,5.10
2022-08-22T00:40:23.821Z,3.60
2022-08-22T00:41:23.776Z,4.50
2022-08-22T00:42:31.564Z,3.10
2022-08-22T00:43:23.771Z,4.70
2022-08-22T00:44:23.763Z,4.20
2022-08-22T00:45:23.740Z,3.70
2022-08-22T00:46:23.717Z,3.50
2022-08-22T00:47:23.695Z,4.10
2022-08-22T00:48:23.704Z,4.90
2022-08-22T00:49:24.394Z,5.00
2022-08-22T00:50:23.666Z,5.30
2022-08-22T00:51:23.660Z,7.50
2022-08-22T00:52:23.634Z,5.50
2022-08-22T00:53:23.637Z,5.00
2022-08-22T00:54:23.652Z,6.20
2022-08-22T00:55:23.602Z,4.70
2022-08-22T00:56:23.582Z,3.90
2022-08-22T00:57:23.586Z,4.00
2022-08-22T00:58:23.560Z,3.30
2022-08-22T00:59:24.257Z,4.70
2022-08-22T01:00:23.558Z,4.00
2022-08-22T01:01:23.541Z,6.50
2022-08-22T01:02:23.516Z,4.90
2022-08-22T01:03:23.521Z,4.80
2022-08-22T01:04:23.489Z,3.20
2022-08-22T01:05:23.477Z,3.50
2022-08-22T01:06:23.458Z,3.50
2022-08-22T01:07:23.442Z,3.60
2022-08-22T01:08:23.430Z,5.10
2022-08-22T01:09:23.415Z,4.90
2022-08-22T01:10:23.409Z,3.30
2022-08-22T01:11:23.402Z,3.40
2022-08-22T01:12:23.408Z,4.70
2022-08-22T01:13:23.360Z,3.80
2022-08-22T01:14:34.834Z,3.70
2022-08-22T01:15:23.394Z,5.20
2022-08-22T01:16:23.326Z,4.20
2022-08-22T01:17:23.328Z,4.10
2022-08-22T01:18:23.320Z,5.60
2022-08-22T01:19:23.288Z,5.70
2022-08-22T01:20:23.274Z,4.90
2022-08-22T01:21:24.225Z,4.50
2022-08-22T01:22:23.266Z,3.50
2022-08-22T01:23:23.251Z,6.20
2022-08-22T01:24:24.233Z,3.80
2022-08-22T01:25:25.977Z,4.50
2022-08-22T01:26:23.194Z,3.60
2022-08-22T01:27:23.221Z,4.90
2022-08-22T01:28:23.322Z,3.50
2022-08-22T01:29:28.426Z,3.60
2022-08-22T01:30:23.437Z,4.10
2022-08-22T01:31:23.144Z,3.60
2022-08-22T01:32:23.118Z,4.40
2022-08-22T01:33:23.101Z,3.50
2022-08-22T01:34:23.168Z,3.60
2022-08-22T01:35:23.085Z,3.30
2022-08-22T01:36:23.065Z,3.90
2022-08-22T01:37:23.068Z,3.80
2022-08-22T01:38:23.042Z,4.90
2022-08-22T01:39:23.021Z,4.80
2022-08-22T01:40:23.149Z,5.50
2022-08-22T01:41:23.007Z,4.40
2022-08-22T01:42:22.995Z,4.80
2022-08-22T01:43:22.990Z,5.70
2022-08-22T01:44:22.969Z,6.00
2022-08-22T01:45:22.943Z,3.30
2022-08-22T01:46:22.970Z,4.20
2022-08-22T01:47:22.939Z,3.70
2022-08-22T01:48:22.911Z,4.90
2022-08-22T01:49:22.888Z,5.10
2022-08-22T01:50:22.892Z,3.90
2022-08-22T01:51:22.865Z,4.90
2022-08-22T01:52:22.861Z,5.90
2022-08-22T01:53:22.869Z,6.20
2022-08-22T01:54:22.830Z,4.90
2022-08-22T01:55:22.814Z,7.20
2022-08-22T01:56:22.799Z,4.80
2022-08-22T01:57:22.798Z,5.20
2022-08-22T01:58:22.777Z,4.30
2022-08-22T01:59:22.808Z,4.20
2022-08-22T02:00:34.756Z,5.00
2022-08-22T02:01:22.774Z,4.00
2022-08-22T02:02:22.754Z,5.10
2022-08-22T02:03:22.709Z,3.80
2022-08-22T02:04:22.716Z,3.90
2022-08-22T02:05:22.718Z,3.60
2022-08-22T02:06:22.693Z,5.90
2022-08-22T02:07:24.123Z,3.80
2022-08-22T02:08:22.699Z,4.20
2022-08-22T02:09:22.648Z,4.20
2022-08-22T02:10:22.651Z,5.80
2022-08-22T02:11:22.626Z,4.50
2022-08-22T02:12:22.596Z,5.30
2022-08-22T02:13:22.581Z,5.90
2022-08-22T02:14:22.609Z,3.90
2022-08-22T02:15:22.549Z,4.50
2022-08-22T02:16:22.566Z,4.20
2022-08-22T02:17:22.543Z,3.90
2022-08-22T02:18:22.519Z,3.80
2022-08-22T02:19:22.531Z,3.70
2022-08-22T02:20:22.491Z,6.80
2022-08-22T02:21:22.503Z,3.40
2022-08-22T02:22:22.459Z,5.00
2022-08-22T02:23:22.511Z,4.90
2022-08-22T02:24:22.438Z,3.80
2022-08-22T02:25:22.440Z,5.80
2022-08-22T02:26:22.434Z,5.20
2022-08-22T02:27:22.429Z,4.70
2022-08-22T02:28:22.385Z,4.70
2022-08-22T02:29:22.376Z,3.60
2022-08-22T02:30:22.384Z,4.10
2022-08-22T02:31:22.349Z,8.00
2022-08-22T02:32:22.348Z,4.40
2022-08-22T02:33:22.316Z,5.40
2022-08-22T02:34:22.313Z,4.10
2022-08-22T02:35:22.337Z,5.40
2022-08-22T02:36:22.325Z,4.80
2022-08-22T02:37:22.268Z,7.10
2022-08-22T02:38:22.262Z,4.20
2022-08-22T02:39:22.243Z,3.90
2022-08-22T02:40:22.289Z,5.70
2022-08-22T02:41:22.212Z,5.50
2022-08-22T02:42:22.219Z,4.60
2022-08-22T02:43:22.190Z,4.30
2022-08-22T02:44:22.181Z,3.70
2022-08-22T02:45:22.182Z,5.70
2022-08-22T02:46:22.178Z,4.50
2022-08-22T02:47:22.135Z,3.60
2022-08-22T02:48:22.215Z,4.70
2022-08-22T02:49:22.141Z,3.90
2022-08-22T02:50:22.115Z,4.20
2022-08-22T02:51:22.089Z,4.00
2022-08-22T02:52:22.093Z,4.00
2022-08-22T02:53:22.069Z,3.70
2022-08-22T02:54:22.066Z,4.00
2022-08-22T02:55:22.044Z,3.30
2022-08-22T02:56:22.030Z,4.10
2022-08-22T02:57:22.023Z,3.40
2022-08-22T02:58:22.010Z,5.80
2022-08-22T02:59:22.210Z,3.40
2022-08-22T03:00:31.527Z,5.30
2022-08-22T03:01:22.048Z,5.20
2022-08-22T03:02:21.954Z,5.20
2022-08-22T03:03:21.926Z,3.40
2022-08-22T03:04:21.924Z,5.50
2022-08-22T03:05:21.905Z,3.70
2022-08-22T03:06:22.215Z,7.30
2022-08-22T03:07:21.894Z,4.60
2022-08-22T03:08:21.878Z,3.90
2022-08-22T03:09:21.889Z,3.60
2022-08-22T03:10:21.844Z,4.40
2022-08-22T03:11:21.839Z,3.90
2022-08-22T03:12:21.816Z,4.30
2022-08-22T03:13:21.835Z,5.20
2022-08-22T03:14:21.812Z,4.30
2022-08-22T03:15:21.778Z,4.20
2022-08-22T03:16:21.774Z,4.80
2022-08-22T03:17:21.756Z,4.60
2022-08-22T03:18:21.756Z,5.10
2022-08-22T03:19:21.729Z,3.80
2022-08-22T03:20:21.715Z,5.30
2022-08-22T03:21:21.699Z,5.60
2022-08-22T03:22:21.742Z,4.70
2022-08-22T03:23:21.676Z,5.40
2022-08-22T03:24:21.686Z,4.50
2022-08-22T03:25:21.689Z,4.30
2022-08-22T03:26:21.640Z,4.40
2022-08-22T03:27:31.427Z,3.70
2022-08-22T03:28:21.616Z,3.30
2022-08-22T03:29:21.629Z,4.20
2022-08-22T03:30:21.627Z,4.30
2022-08-22T03:31:21.569Z,5.80
2022-08-22T03:32:21.562Z,3.80
2022-08-22T03:33:21.544Z,4.20
2022-08-22T03:34:21.534Z,4.70
2022-08-22T03:35:21.557Z,4.00
2022-08-22T03:36:21.508Z,4.90
2022-08-22T03:37:21.493Z,4.20
2022-08-22T03:38:21.527Z,4.20
2022-08-22T03:39:21.469Z,4.70
2022-08-22T03:40:21.534Z,5.00
2022-08-22T03:41:21.447Z,5.00
2022-08-22T03:42:21.427Z,5.40
2022-08-22T03:43:21.417Z,6.40
2022-08-22T03:44:21.459Z,4.80
2022-08-22T03:45:21.394Z,4.90
2022-08-22T03:46:21.371Z,4.50
2022-08-22T03:47:21.391Z,5.80
2022-08-22T03:48:21.342Z,5.20
2022-08-22T03:49:21.349Z,4.50
2022-08-22T03:50:21.381Z,5.10
2022-08-22T03:51:21.309Z,5.70
2022-08-22T03:52:21.305Z,6.50
2022-08-22T03:53:21.320Z,6.10
2022-08-22T03:54:21.269Z,4.80
2022-08-22T03:55:21.258Z,4.70
2022-08-22T03:56:21.263Z,5.50
2022-08-22T03:57:21.237Z,5.20
2022-08-22T03:58:27.937Z,6.30
2022-08-22T03:59:21.222Z,6.50
2022-08-22T04:00:21.202Z,5.80
2022-08-22T04:01:21.204Z,6.20
2022-08-22T04:02:42.527Z,6.70
2022-08-22T04:03:21.161Z,5.20
2022-08-22T04:04:21.155Z,7.30
2022-08-22T04:05:21.131Z,6.10
2022-08-22T04:06:21.108Z,4.40
2022-08-22T04:07:32.185Z,5.40
2022-08-22T04:08:25.605Z,6.40
2022-08-22T04:09:21.083Z,4.70
2022-08-22T04:10:21.075Z,5.40
2022-08-22T04:11:21.054Z,4.40
2022-08-22T04:12:21.039Z,6.00
2022-08-22T04:13:21.024Z,4.30
2022-08-22T04:14:21.038Z,7.10
2022-08-22T04:15:21.065Z,4.70
2022-08-22T04:16:21.022Z,4.40
2022-08-22T04:17:20.973Z,5.70
2022-08-22T04:18:20.961Z,5.90
2022-08-22T04:19:20.950Z,5.30
2022-08-22T04:20:20.962Z,5.90
2022-08-22T04:21:20.960Z,5.50
2022-08-22T04:22:20.919Z,4.80
2022-08-22T04:23:20.915Z,5.20
2022-08-22T04:24:20.879Z,4.40
2022-08-22T04:25:20.879Z,5.20
2022-08-22T04:26:20.864Z,5.20
2022-08-22T04:27:20.844Z,9.30
2022-08-22T04:28:20.830Z,7.30
2022-08-22T04:29:20.852Z,5.00
2022-08-22T04:30:20.799Z,5.20
2022-08-22T04:31:20.822Z,5.00
2022-08-22T04:32:20.780Z,7.60
2022-08-22T04:33:20.785Z,5.00
2022-08-22T04:34:20.757Z,7.40
2022-08-22T04:35:20.773Z,5.00
2022-08-22T04:36:20.761Z,5.90
2022-08-22T04:37:20.733Z,6.40
2022-08-22T04:38:20.723Z,7.30
2022-08-22T04:39:20.686Z,6.40
2022-08-22T04:40:20.754Z,5.00
2022-08-22T04:41:20.682Z,6.50
2022-08-22T04:42:35.860Z,6.80
2022-08-22T04:43:20.635Z,5.40
2022-08-22T04:44:20.627Z,5.20
2022-08-22T04:45:20.604Z,5.50
2022-08-22T04:46:20.592Z,5.90
2022-08-22T04:47:20.630Z,4.70
2022-08-22T04:48:20.564Z,5.60
2022-08-22T04:49:20.568Z,7.30
2022-08-22T04:50:20.540Z,6.70
2022-08-22T04:51:20.547Z,7.30
2022-08-22T04:52:20.518Z,5.30
2022-08-22T04:53:20.522Z,6.50
2022-08-22T04:54:20.516Z,8.30
2022-08-22T04:55:20.472Z,7.00
2022-08-22T04:56:20.716Z,6.80
2022-08-22T04:57:21.844Z,5.90
2022-08-22T04:58:20.961Z,5.40
2022-08-22T04:59:20.419Z,7.10
2022-08-22T05:00:20.414Z,5.60
2022-08-22T05:01:20.480Z,5.00
2022-08-22T05:02:20.394Z,7.10
2022-08-22T05:03:20.361Z,5.60
2022-08-22T05:04:20.359Z,7.40
2022-08-22T05:05:20.412Z,5.10
2022-08-22T05:06:20.364Z,5.80
2022-08-22T05:07:20.321Z,9.40
2022-08-22T05:08:20.303Z,6.70
2022-08-22T05:09:20.312Z,6.20
2022-08-22T05:10:20.280Z,7.60
2022-08-22T05:11:20.273Z,5.10
2022-08-22T05:12:20.260Z,6.80
2022-08-22T05:13:20.232Z,7.30
2022-08-22T05:14:20.265Z,5.30
2022-08-22T05:15:23.111Z,6.20
2022-08-22T05:16:20.207Z,6.30
2022-08-22T05:17:20.185Z,6.40
2022-08-22T05:18:20.189Z,5.90
2022-08-22T05:19:28.424Z,8.60
2022-08-22T05:20:20.146Z,8.80
2022-08-22T05:21:20.150Z,6.10
2022-08-22T05:22:20.114Z,5.80
2022-08-22T05:23:20.136Z,6.50
2022-08-22T05:24:20.088Z,6.40
2022-08-22T05:25:20.101Z,4.80
2022-08-22T05:26:20.095Z,7.70
2022-08-22T05:27:20.053Z,5.70
2022-08-22T05:28:20.038Z,5.90
2022-08-22T05:29:20.042Z,4.60
2022-08-22T05:30:20.016Z,5.60
2022-08-22T05:31:20.031Z,6.30
2022-08-22T05:32:19.995Z,4.80
2022-08-22T05:33:19.972Z,7.20
2022-08-22T05:34:19.969Z,5.90
2022-08-22T05:35:19.989Z,5.60
2022-08-22T05:36:19.954Z,5.70
2022-08-22T05:37:19.950Z,4.90
2022-08-22T05:38:19.930Z,8.20
2022-08-22T05:39:19.920Z,5.30
2022-08-22T05:40:19.968Z,7.30
2022-08-22T05:41:19.927Z,6.50
2022-08-22T05:42:19.897Z,6.60
2022-08-22T05:43:19.847Z,6.60
2022-08-22T05:44:19.840Z,5.20
2022-08-22T05:45:19.815Z,6.30
2022-08-22T05:46:19.797Z,4.80
2022-08-22T05:47:19.815Z,6.50
2022-08-22T05:48:19.806Z,5.10
2022-08-22T05:49:19.769Z,5.50
2022-08-22T05:50:19.753Z,5.30
2022-08-22T05:51:19.760Z,9.10
2022-08-22T05:52:19.736Z,7.10
2022-08-22T05:53:19.765Z,4.90
2022-08-22T05:54:19.713Z,6.30
2022-08-22T05:55:19.712Z,7.90
2022-08-22T05:56:19.677Z,6.80
2022-08-22T05:57:19.660Z,6.40
2022-08-22T05:58:19.885Z,5.00
2022-08-22T05:59:19.661Z,7.40
2022-08-22T06:00:21.600Z,5.80
2022-08-22T06:01:19.665Z,7.40
2022-08-22T06:02:19.620Z,7.20
2022-08-22T06:03:19.592Z,6.10
2022-08-22T06:04:19.618Z,4.90
2022-08-22T06:05:19.558Z,5.10
2022-08-22T06:06:19.545Z,4.80
2022-08-22T06:07:19.531Z,4.50
2022-08-22T06:08:19.533Z,5.40
2022-08-22T06:09:19.543Z,7.10
2022-08-22T06:10:19.494Z,5.90
2022-08-22T06:11:19.480Z,8.00
2022-08-22T06:12:21.280Z,5.40
2022-08-22T06:13:24.408Z,7.20
2022-08-22T06:14:19.442Z,7.00
2022-08-22T06:15:20.907Z,6.80
2022-08-22T06:16:19.414Z,5.80
2022-08-22T06:17:19.400Z,4.60
2022-08-22T06:18:19.420Z,6.20
2022-08-22T06:19:20.225Z,7.00
2022-08-22T06:20:19.358Z,5.40
2022-08-22T06:21:19.368Z,5.80
2022-08-22T06:22:19.353Z,6.70
2022-08-22T06:23:19.329Z,6.40
2022-08-22T06:24:19.335Z,8.50
2022-08-22T06:25:19.297Z,5.50
2022-08-22T06:26:20.141Z,7.10
2022-08-22T06:27:19.267Z,5.80
2022-08-22T06:28:19.260Z,5.50
2022-08-22T06:29:19.244Z,6.90
2022-08-22T06:30:19.226Z,6.20
2022-08-22T06:31:19.225Z,6.80
2022-08-22T06:32:44.578Z,7.00
2022-08-22T06:33:19.197Z,7.40
2022-08-22T06:34:19.175Z,5.50
2022-08-22T06:35:19.175Z,6.60
2022-08-22T06:36:20.518Z,6.60
2022-08-22T06:37:19.152Z,6.30
2022-08-22T06:38:19.131Z,7.90
2022-08-22T06:39:19.125Z,8.80
2022-08-22T06:40:19.171Z,7.80
2022-08-22T06:41:19.097Z,9.50
2022-08-22T06:42:19.089Z,9.00
2022-08-22T06:43:19.065Z,8.60
2022-08-22T06:44:19.050Z,9.00
2022-08-22T06:45:19.087Z,8.30
2022-08-22T06:46:19.087Z,9.40
2022-08-22T06:47:19.037Z,7.40
2022-08-22T06:48:19.022Z,9.60
2022-08-22T06:49:19.001Z,11.10
2022-08-22T06:50:18.983Z,9.40
2022-08-22T06:51:18.977Z,7.80
2022-08-22T06:52:18.964Z,10.20
2022-08-22T06:53:18.973Z,8.60
2022-08-22T06:54:18.928Z,10.00
2022-08-22T06:55:18.910Z,7.60
2022-08-22T06:56:18.943Z,11.20
2022-08-22T06:57:18.898Z,9.90
2022-08-22T06:58:18.898Z,8.90
2022-08-22T06:59:18.862Z,10.10
2022-08-22T07:00:18.858Z,11.10
2022-08-22T07:01:18.922Z,11.30
2022-08-22T07:02:18.827Z,9.60
2022-08-22T07:03:18.838Z,11.30
2022-08-22T07:04:18.806Z,10.00
2022-08-22T07:05:18.785Z,11.10
2022-08-22T07:06:18.773Z,10.50
2022-08-22T07:07:18.782Z,10.30
2022-08-22T07:08:18.751Z,10.30
2022-08-22T07:09:18.741Z,8.50
2022-08-22T07:10:18.734Z,11.00
2022-08-22T07:11:18.722Z,11.00
2022-08-22T07:12:18.711Z,11.10
2022-08-22T07:13:18.694Z,10.50
2022-08-22T07:14:18.688Z,12.10
2022-08-22T07:15:18.670Z,11.70
2022-08-22T07:16:18.653Z,10.60
2022-08-22T07:17:18.651Z,9.40
2022-08-22T07:18:18.627Z,8.10
2022-08-22T07:19:18.628Z,8.80
2022-08-22T07:20:18.597Z,9.40
2022-08-22T07:21:18.597Z,9.70
2022-08-22T07:22:18.595Z,9.80
2022-08-22T07:23:18.566Z,9.70
2022-08-22T07:24:18.566Z,9.50
2022-08-22T07:25:18.545Z,8.20
2022-08-22T07:26:18.529Z,10.70
2022-08-22T07:27:18.534Z,10.30
2022-08-22T07:28:18.531Z,11.10
2022-08-22T07:29:18.520Z,10.90
2022-08-22T07:30:27.345Z,9.60
2022-08-22T07:31:18.463Z,10.10
2022-08-22T07:32:18.485Z,11.50
2022-08-22T07:33:26.561Z,11.90
2022-08-22T07:34:18.450Z,9.80
2022-08-22T07:35:18.428Z,11.70
2022-08-22T07:36:18.403Z,10.00
2022-08-22T07:37:18.403Z,8.70
2022-08-22T07:38:18.399Z,12.50
2022-08-22T07:39:18.400Z,10.80
2022-08-22T07:40:18.441Z,10.40
2022-08-22T07:41:18.355Z,11.70
2022-08-22T07:42:18.310Z,10.00
2022-08-22T07:43:18.310Z,10.00
2022-08-22T07:44:18.293Z,9.30
2022-08-22T07:45:18.287Z,8.60
2022-08-22T07:46:18.267Z,9.80
2022-08-22T07:47:18.857Z,7.70
2022-08-22T07:48:25.481Z,8.00
2022-08-22T07:49:18.276Z,8.00
2022-08-22T07:50:18.247Z,7.30
2022-08-22T07:51:18.243Z,9.40
2022-08-22T07:52:18.180Z,9.60
2022-08-22T07:53:18.167Z,7.70
2022-08-22T07:54:18.178Z,7.90
2022-08-22T07:55:18.159Z,10.20
2022-08-22T07:56:18.142Z,8.10
2022-08-22T07:57:18.118Z,7.40
2022-08-22T07:58:18.173Z,6.70
2022-08-22T07:59:18.120Z,7.10
2022-08-22T08:00:18.091Z,6.20
2022-08-22T08:01:18.134Z,7.60
2022-08-22T08:02:18.053Z,8.00
2022-08-22T08:03:18.095Z,7.30
2022-08-22T08:04:18.049Z,6.80
2022-08-22T08:05:18.016Z,6.40
2022-08-22T08:06:18.029Z,5.70
2022-08-22T08:07:17.987Z,8.00
2022-08-22T08:08:17.982Z,7.00
2022-08-22T08:09:17.977Z,7.00
2022-08-22T08:10:17.955Z,6.30
2022-08-22T08:11:17.976Z,6.30
2022-08-22T08:12:17.944Z,6.70
2022-08-22T08:13:17.910Z,5.60
2022-08-22T08:14:17.907Z,5.30
2022-08-22T08:15:17.881Z,6.70
2022-08-22T08:16:17.874Z,5.30
2022-08-22T08:17:17.861Z,6.70
2022-08-22T08:18:17.850Z,5.50
2022-08-22T08:19:17.838Z,7.20
2022-08-22T08:20:17.826Z,7.00
2022-08-22T08:21:17.802Z,7.10
2022-08-22T08:22:17.825Z,5.80
2022-08-22T08:23:17.786Z,5.30
2022-08-22T08:24:17.782Z,6.80
2022-08-22T08:25:17.761Z,5.60
2022-08-22T08:26:17.745Z,5.20
2022-08-22T08:27:17.727Z,6.20
2022-08-22T08:28:18.231Z,6.50
2022-08-22T08:29:17.715Z,6.00
2022-08-22T08:30:17.725Z,7.20
2022-08-22T08:31:17.699Z,5.90
2022-08-22T08:32:17.665Z,7.90
2022-08-22T08:33:24.247Z,5.80
2022-08-22T08:34:17.663Z,6.40
2022-08-22T08:35:17.820Z,6.40
2022-08-22T08:36:17.617Z,6.80
2022-08-22T08:37:17.598Z,6.50
2022-08-22T08:38:17.693Z,4.90
2022-08-22T08:39:17.574Z,4.10
2022-08-22T08:40:17.600Z,7.30
2022-08-22T08:41:22.106Z,4.30
2022-08-22T08:42:17.543Z,6.80
2022-08-22T08:43:17.546Z,5.40
2022-08-22T08:44:17.576Z,5.20
2022-08-22T08:45:17.497Z,6.40
2022-08-22T08:46:17.487Z,4.30
2022-08-22T08:47:17.479Z,5.10
2022-08-22T08:48:17.478Z,6.50
2022-08-22T08:49:17.445Z,5.40
2022-08-22T08:50:17.448Z,6.00
2022-08-22T08:51:17.441Z,6.10
2022-08-22T08:52:17.408Z,4.40
2022-08-22T08:53:17.453Z,4.80
2022-08-22T08:54:17.493Z,6.60
2022-08-22T08:55:21.773Z,9.40
2022-08-22T08:56:19.783Z,5.60
2022-08-22T08:57:17.374Z,5.30
2022-08-22T08:58:17.724Z,5.40
2022-08-22T08:59:17.336Z,4.40
2022-08-22T09:00:17.310Z,6.00
2022-08-22T09:01:19.492Z,3.60
2022-08-22T09:02:20.462Z,4.40
2022-08-22T09:03:21.160Z,7.20
2022-08-22T09:04:17.265Z,10.50
2022-08-22T09:05:17.335Z,6.50
2022-08-22T09:06:17.249Z,5.80
2022-08-22T09:07:17.231Z,5.60
2022-08-22T09:08:17.248Z,6.20
2022-08-22T09:09:17.186Z,4.60
2022-08-22T09:10:17.210Z,3.60
2022-08-22T09:11:28.105Z,9.20
2022-08-22T09:12:17.174Z,5.20
2022-08-22T09:13:17.138Z,4.20
2022-08-22T09:14:17.844Z,5.70
2022-08-22T09:15:17.118Z,5.90
2022-08-22T09:16:17.098Z,6.00
2022-08-22T09:17:17.083Z,8.10
2022-08-22T09:18:18.149Z,3.70
2022-08-22T09:19:17.067Z,4.20
2022-08-22T09:20:19.465Z,7.00
2022-08-22T09:21:17.043Z,6.50
2022-08-22T09:22:17.054Z,4.00
2022-08-22T09:23:17.006Z,4.00
2022-08-22T09:24:16.997Z,5.70
2022-08-22T09:25:16.989Z,6.20
2022-08-22T09:26:16.998Z,5.00
2022-08-22T09:27:16.971Z,4.50
2022-08-22T09:28:16.954Z,3.40
2022-08-22T09:29:16.926Z,4.90
2022-08-22T09:30:16.928Z,5.10
2022-08-22T09:31:33.095Z,5.50
2022-08-22T09:32:16.901Z,5.20
2022-08-22T09:33:16.882Z,4.70
2022-08-22T09:34:16.878Z,4.10
2022-08-22T09:35:16.869Z,7.60
2022-08-22T09:36:16.846Z,6.10
2022-08-22T09:37:16.823Z,5.10
2022-08-22T09:38:16.816Z,3.80
2022-08-22T09:39:16.818Z,5.70
2022-08-22T09:40:19.601Z,3.20
2022-08-22T09:41:16.791Z,7.00
2022-08-22T09:42:16.770Z,5.00
2022-08-22T09:43:21.026Z,4.30
2022-08-22T09:44:16.741Z,8.00
2022-08-22T09:45:16.721Z,8.40
2022-08-22T09:46:16.750Z,6.60
2022-08-22T09:47:16.704Z,8.00
2022-08-22T09:48:16.704Z,9.50
2022-08-22T09:49:16.667Z,9.50
2022-08-22T09:50:17.599Z,11.10
2022-08-22T09:51:33.292Z,6.50
2022-08-22T09:52:34.043Z,6.90
2022-08-22T09:53:16.629Z,7.60
2022-08-22T09:54:16.607Z,7.70
2022-08-22T09:55:17.014Z,5.00
2022-08-22T09:56:16.580Z,6.30
2022-08-22T09:57:16.573Z,7.00
2022-08-22T09:58:16.567Z,6.00
2022-08-22T09:59:16.553Z,7.30
2022-08-22T10:00:16.534Z,5.10
2022-08-22T10:01:16.583Z,5.50
2022-08-22T10:02:16.504Z,4.90
2022-08-22T10:03:16.493Z,6.50
2022-08-22T10:04:19.510Z,4.30
2022-08-22T10:05:41.080Z,4.20
2022-08-22T10:06:16.469Z,3.70
2022-08-22T10:07:16.441Z,2.80
2022-08-22T10:08:19.950Z,3.40
2022-08-22T10:09:16.408Z,3.30
2022-08-22T10:10:16.410Z,5.50
2022-08-22T10:11:16.397Z,3.80
2022-08-22T10:12:16.379Z,3.70
2022-08-22T10:13:16.376Z,6.80
2022-08-22T10:14:16.351Z,5.20
2022-08-22T10:15:16.381Z,4.20
2022-08-22T10:16:16.330Z,3.80
2022-08-22T10:17:16.309Z,4.50
2022-08-22T10:18:16.303Z,2.70
2022-08-22T10:19:16.309Z,5.90
2022-08-22T10:20:16.266Z,4.40
2022-08-22T10:21:16.262Z,4.70
2022-08-22T10:22:16.258Z,4.00
2022-08-22T10:23:16.230Z,3.50
2022-08-22T10:24:25.702Z,4.20
2022-08-22T10:25:16.214Z,5.20
2022-08-22T10:26:23.017Z,5.50
2022-08-22T10:27:16.188Z,5.80
2022-08-22T10:28:16.178Z,6.20
2022-08-22T10:29:16.154Z,6.80
2022-08-22T10:30:16.319Z,4.30
2022-08-22T10:31:16.141Z,4.50
2022-08-22T10:32:16.110Z,3.00
2022-08-22T10:33:16.104Z,4.20
2022-08-22T10:34:16.096Z,4.50
2022-08-22T10:35:16.094Z,3.90
2022-08-22T10:36:16.062Z,4.40
2022-08-22T10:37:16.050Z,4.10
2022-08-22T10:38:16.042Z,2.80
2022-08-22T10:39:16.054Z,3.30
2022-08-22T10:40:16.128Z,4.60
2022-08-22T10:41:16.002Z,4.10
2022-08-22T10:42:16.002Z,5.60
2022-08-22T10:43:15.985Z,3.80
2022-08-22T10:44:15.970Z,5.30
2022-08-22T10:45:15.964Z,4.70
2022-08-22T10:46:15.952Z,4.70
2022-08-22T10:47:15.947Z,3.80
2022-08-22T10:48:15.910Z,5.00
2022-08-22T10:49:18.039Z,2.90
2022-08-22T10:50:15.886Z,4.10
2022-08-22T10:51:15.875Z,2.80
2022-08-22T10:52:16.374Z,3.80
2022-08-22T10:53:15.844Z,4.70
2022-08-22T10:54:19.905Z,5.10
2022-08-22T10:55:15.824Z,2.60
2022-08-22T10:56:15.817Z,3.70
2022-08-22T10:57:15.796Z,4.70
2022-08-22T10:58:15.790Z,3.40
2022-08-22T10:59:15.772Z,5.50
2022-08-22T11:00:15.783Z,4.30
2022-08-22T11:01:37.942Z,4.40
2022-08-22T11:02:15.749Z,4.00
2022-08-22T11:03:21.328Z,4.30
2022-08-22T11:04:15.727Z,5.50
2022-08-22T11:05:15.697Z,3.80
2022-08-22T11:06:15.702Z,3.20
2022-08-22T11:07:15.676Z,5.30
2022-08-22T11:08:15.660Z,4.70
2022-08-22T11:09:15.647Z,3.00
2022-08-22T11:10:15.632Z,4.50
2022-08-22T11:11:15.621Z,8.00
2022-08-22T11:12:15.622Z,5.10
2022-08-22T11:13:15.593Z,6.10
2022-08-22T11:14:15.589Z,2.70
2022-08-22T11:15:15.573Z,3.50
2022-08-22T11:16:15.563Z,4.60
2022-08-22T11:17:27.545Z,3.90
2022-08-22T11:18:15.539Z,4.50
2022-08-22T11:19:16.025Z,3.60
2022-08-22T11:20:15.583Z,3.80
2022-08-22T11:21:15.516Z,4.40
2022-08-22T11:22:15.504Z,4.10
2022-08-22T11:23:15.475Z,4.40
2022-08-22T11:24:17.405Z,3.90
2022-08-22T11:25:15.463Z,5.10
2022-08-22T11:26:15.453Z,4.20
2022-08-22T11:27:20.811Z,3.60
2022-08-22T11:28:15.419Z,4.20
2022-08-22T11:29:15.393Z,4.50
2022-08-22T11:30:18.492Z,2.90
2022-08-22T11:31:15.366Z,3.30
2022-08-22T11:32:15.372Z,6.40
2022-08-22T11:33:15.351Z,4.10
2022-08-22T11:34:15.328Z,4.20
2022-08-22T11:35:15.319Z,5.30
2022-08-22T11:36:15.304Z,3.30
2022-08-22T11:37:15.303Z,4.40
2022-08-22T11:38:15.293Z,3.40
2022-08-22T11:39:18.195Z,3.40
2022-08-22T11:40:15.437Z,3.30
2022-08-22T11:41:15.247Z,4.70
2022-08-22T11:42:15.241Z,3.00
2022-08-22T11:43:18.088Z,4.00
2022-08-22T11:44:15.204Z,4.40
2022-08-22T11:45:16.398Z,4.70
2022-08-22T11:46:15.182Z,4.50
2022-08-22T11:47:15.186Z,5.50
2022-08-22T11:48:15.175Z,3.70
2022-08-22T11:49:15.155Z,3.00
2022-08-22T11:50:15.143Z,6.70
2022-08-22T11:51:15.117Z,5.30
2022-08-22T11:52:15.125Z,4.20
2022-08-22T11:53:15.095Z,3.90
2022-08-22T11:54:15.116Z,3.70
2022-08-22T11:55:15.089Z,3.40
2022-08-22T11:56:15.287Z,4.60
2022-08-22T11:57:15.040Z,4.30
2022-08-22T11:58:15.028Z,4.80
2022-08-22T11:59:15.023Z,2.30
2022-08-22T12:00:15.128Z,4.40
2022-08-22T12:01:15.008Z,3.60
2022-08-22T12:02:15.033Z,3.50
2022-08-22T12:03:14.976Z,6.00
2022-08-22T12:04:14.952Z,3.00
2022-08-22T12:05:21.565Z,2.60
2022-08-22T12:06:14.927Z,3.10
2022-08-22T12:07:14.919Z,4.00
2022-08-22T12:08:14.908Z,3.20
2022-08-22T12:09:14.904Z,2.20
2022-08-22T12:10:14.992Z,4.30
2022-08-22T12:11:14.862Z,3.90
2022-08-22T12:12:14.842Z,3.40
2022-08-22T12:13:14.838Z,2.60
2022-08-22T12:14:14.830Z,2.90
2022-08-22T12:15:14.823Z,6.50
2022-08-22T12:16:14.799Z,5.40
2022-08-22T12:17:21.264Z,1.10
2022-08-22T12:18:21.129Z,2.40
2022-08-22T12:19:14.760Z,3.90
2022-08-22T12:20:16.114Z,2.60
2022-08-22T12:21:14.738Z,5.70
2022-08-22T12:22:14.728Z,3.10
2022-08-22T12:23:14.733Z,2.40
2022-08-22T12:24:19.136Z,3.50
2022-08-22T12:25:14.686Z,1.70
2022-08-22T12:26:14.664Z,4.00
2022-08-22T12:27:14.672Z,3.90
2022-08-22T12:28:15.837Z,3.40
2022-08-22T12:29:15.413Z,3.50
2022-08-22T12:30:14.623Z,2.80
2022-08-22T12:31:14.604Z,1.30
2022-08-22T12:32:14.586Z,2.30
2022-08-22T12:33:20.774Z,2.40
2022-08-22T12:34:14.557Z,2.30
2022-08-22T12:35:14.644Z,2.40
2022-08-22T12:36:17.804Z,2.30
2022-08-22T12:37:14.522Z,1.90
2022-08-22T12:38:29.428Z,4.40
2022-08-22T12:39:14.496Z,2.80
2022-08-22T12:40:14.590Z,3.20
2022-08-22T12:41:14.470Z,2.60
2022-08-22T12:42:14.457Z,2.50
2022-08-22T12:43:14.441Z,3.10
2022-08-22T12:44:17.098Z,2.70
2022-08-22T12:45:14.435Z,2.60
2022-08-22T12:46:14.400Z,2.10
2022-08-22T12:47:14.403Z,2.30
2022-08-22T12:48:14.376Z,1.90
2022-08-22T12:49:14.381Z,2.40
2022-08-22T12:50:14.350Z,1.40
2022-08-22T12:51:17.251Z,2.60
2022-08-22T12:52:14.333Z,3.10
2022-08-22T12:53:18.265Z,1.90
2022-08-22T12:54:14.309Z,2.10
2022-08-22T12:55:14.303Z,3.90
2022-08-22T12:56:14.299Z,2.00
2022-08-22T12:57:24.279Z,2.40
2022-08-22T12:58:14.255Z,2.20
2022-08-22T12:59:14.240Z,2.30
2022-08-22T13:00:14.226Z,2.80
2022-08-22T13:01:14.237Z,1.60
2022-08-22T13:02:14.209Z,2.50
2022-08-22T13:03:14.187Z,2.10
2022-08-22T13:04:32.390Z,2.30
2022-08-22T13:05:19.697Z,1.20
2022-08-22T13:06:14.154Z,1.80
2022-08-22T13:07:14.150Z,1.80
2022-08-22T13:08:14.127Z,2.80
2022-08-22T13:09:14.113Z,3.10
2022-08-22T13:10:14.104Z,2.30
2022-08-22T13:11:23.055Z,2.50
2022-08-22T13:12:14.079Z,1.40
2022-08-22T13:13:14.070Z,2.70
2022-08-22T13:14:19.595Z,3.30
2022-08-22T13:15:14.042Z,1.80
2022-08-22T13:16:14.054Z,1.80
2022-08-22T13:17:24.574Z,2.50
2022-08-22T13:18:30.008Z,1.80
2022-08-22T13:19:14.517Z,1.70